Headrick, Oklahoma
Current Conditions -  °F | °C
As of 6:58 PM on Friday 24 Oct 2014 (Local Time) from KLTS Reporting Station
Clear Clear  
Wind Chill: 81°   Ceiling: Unl
Heat Index: 81°   Visibility: 10mi
Dew Point: 58°   Wind: 8mph
Humidity: 46%   Direction: 170°S
Pressure: 30.01"   Gusts: NA
Location:  34.63°N, 99.14°W
Report Text: KLTS 242358Z 17007KT 10SM CLR 27/15 A3001 RMK AO2A SLP153 T02720147 10324 20272 55001 $
Loading
Personal Weather Stations






























Interactive Weather Map
Tropical Storm Tracking
New forecast layout! Learn more

10-Day Weather Forecast

Advertisements
Track Severe Weather on mobile